createdAt,value
2018-10-12T00:02:15.469Z,12.00
2018-10-12T00:04:44.854Z,12.37
2018-10-12T00:07:14.238Z,11.40
2018-10-12T00:09:43.906Z,12.13
2018-10-12T00:12:13.365Z,11.70
2018-10-12T00:14:42.593Z,11.23
2018-10-12T00:17:11.918Z,12.53
2018-10-12T00:19:41.511Z,13.17
2018-10-12T00:22:11.001Z,11.90
2018-10-12T00:24:40.221Z,12.73
2018-10-12T00:27:09.571Z,12.03
2018-10-12T00:29:39.575Z,12.07
2018-10-12T00:32:09.227Z,12.87
2018-10-12T00:34:38.443Z,12.27
2018-10-12T00:37:07.927Z,12.50
2018-10-12T00:39:37.235Z,12.37
2018-10-12T00:42:06.597Z,12.37
2018-10-12T00:44:35.755Z,11.87
2018-10-12T00:47:05.045Z,12.30
2018-10-12T00:49:34.489Z,12.50
2018-10-12T00:52:03.792Z,12.53
2018-10-12T00:54:33.259Z,10.70
2018-10-12T00:57:02.950Z,10.50
2018-10-12T00:59:32.331Z,10.70
2018-10-12T01:02:01.817Z,10.60
2018-10-12T01:04:31.196Z,10.87
2018-10-12T01:07:00.451Z,11.20
2018-10-12T01:09:30.139Z,10.90
2018-10-12T01:12:10.488Z,11.17
2018-10-12T01:14:40.137Z,10.47
2018-10-12T01:17:09.501Z,10.13
2018-10-12T01:19:38.998Z,10.53
2018-10-12T01:22:08.311Z,10.17
2018-10-12T01:24:37.689Z,10.63
2018-10-12T01:27:07.275Z,9.70
2018-10-12T01:29:36.507Z,10.63
2018-10-12T01:32:05.682Z,10.00
2018-10-12T01:34:35.231Z,10.57
2018-10-12T01:37:04.443Z,10.30
2018-10-12T01:39:33.896Z,10.27
2018-10-12T01:42:03.241Z,10.53
2018-10-12T01:44:32.775Z,10.33
2018-10-12T01:47:02.476Z,11.00
2018-10-12T01:49:31.611Z,11.13
2018-10-12T01:52:00.904Z,10.73
2018-10-12T01:54:30.159Z,12.10
2018-10-12T01:56:59.620Z,11.00
2018-10-12T01:59:28.899Z,9.67
2018-10-12T02:01:58.271Z,11.77
2018-10-12T02:04:27.808Z,10.33
2018-10-12T02:06:57.377Z,12.13
2018-10-12T02:09:26.761Z,11.40
2018-10-12T02:11:56.594Z,11.90
2018-10-12T02:14:26.237Z,11.63
2018-10-12T02:16:55.412Z,11.90
2018-10-12T02:19:24.884Z,11.93
2018-10-12T02:21:54.300Z,11.60
2018-10-12T02:24:23.961Z,12.07
2018-10-12T02:26:53.272Z,12.13
2018-10-12T02:29:22.695Z,12.00
2018-10-12T02:31:51.981Z,12.07
2018-10-12T02:34:21.129Z,11.60
2018-10-12T02:36:50.349Z,12.37
2018-10-12T02:39:19.527Z,11.97
2018-10-12T02:41:48.771Z,11.33
2018-10-12T02:44:18.245Z,11.47
2018-10-12T02:46:47.381Z,11.70
2018-10-12T02:49:16.830Z,10.57
2018-10-12T02:51:46.169Z,11.43
2018-10-12T02:54:15.422Z,11.47
2018-10-12T02:56:44.800Z,11.67
2018-10-12T02:59:14.238Z,12.40
2018-10-12T03:01:43.586Z,11.90
2018-10-12T03:04:12.968Z,12.63
2018-10-12T03:06:42.418Z,12.63
2018-10-12T03:09:12.712Z,11.90
2018-10-12T03:11:42.268Z,12.63
2018-10-12T03:14:11.827Z,13.27
2018-10-12T03:16:41.224Z,12.43
2018-10-12T03:19:10.315Z,12.27
2018-10-12T03:21:39.560Z,11.37
2018-10-12T03:24:08.808Z,11.87
2018-10-12T03:26:38.317Z,11.97
2018-10-12T03:29:07.667Z,12.43
2018-10-12T03:31:37.013Z,11.80
2018-10-12T03:34:06.700Z,12.07
2018-10-12T03:36:35.887Z,11.93
2018-10-12T03:39:06.951Z,12.80
2018-10-12T03:41:36.536Z,12.67
2018-10-12T03:44:05.793Z,11.60
2018-10-12T03:46:35.037Z,11.93
2018-10-12T03:49:04.633Z,12.07
2018-10-12T03:51:33.985Z,11.87
2018-10-12T03:54:03.204Z,12.30
2018-10-12T03:56:32.501Z,12.17
2018-10-12T03:59:01.967Z,12.13
2018-10-12T04:01:31.356Z,13.07
2018-10-12T04:04:00.581Z,12.73
2018-10-12T04:06:30.196Z,12.27
2018-10-12T04:08:59.565Z,11.97
2018-10-12T04:11:28.758Z,11.50
2018-10-12T04:13:58.799Z,13.23
2018-10-12T04:16:28.257Z,12.03
2018-10-12T04:18:57.980Z,11.90
2018-10-12T04:21:27.368Z,12.50
2018-10-12T04:23:56.608Z,11.93
2018-10-12T04:26:25.840Z,10.77
2018-10-12T04:28:55.278Z,10.63
2018-10-12T04:31:24.604Z,11.33
2018-10-12T04:33:54.130Z,10.43
2018-10-12T04:36:23.710Z,9.77
2018-10-12T04:39:04.958Z,9.53
2018-10-12T04:41:34.383Z,9.67
2018-10-12T04:44:04.440Z,9.20
2018-10-12T04:46:38.598Z,9.03
2018-10-12T04:49:09.402Z,9.43
2018-10-12T04:51:47.095Z,10.13
2018-10-12T04:54:16.472Z,9.50
2018-10-12T04:56:46.557Z,9.10
2018-10-12T04:59:15.853Z,10.10
2018-10-12T05:01:45.460Z,10.70
2018-10-12T05:04:14.930Z,10.03
2018-10-12T05:06:44.404Z,10.63
2018-10-12T05:09:14.594Z,10.10
2018-10-12T05:11:43.882Z,10.17
2018-10-12T05:14:13.092Z,10.20
2018-10-12T05:16:42.158Z,8.73
2018-10-12T05:19:11.290Z,9.00
2018-10-12T05:21:40.367Z,9.00
2018-10-12T05:24:09.677Z,9.30
2018-10-12T05:26:39.152Z,9.57
2018-10-12T05:29:08.403Z,8.40
2018-10-12T05:31:37.977Z,9.37
2018-10-12T05:34:07.806Z,9.30
2018-10-12T05:36:37.987Z,9.33
2018-10-12T05:39:11.090Z,9.23
2018-10-12T05:41:40.834Z,8.77
2018-10-12T05:44:11.193Z,10.27
2018-10-12T05:46:41.471Z,9.17
2018-10-12T05:49:22.572Z,9.13
2018-10-12T05:51:53.282Z,9.67
2018-10-12T05:54:23.635Z,9.40
2018-10-12T05:56:55.234Z,9.60
2018-10-12T05:59:25.720Z,8.13
2018-10-12T06:01:55.653Z,8.87
2018-10-12T06:04:25.952Z,9.03
2018-10-12T06:06:57.378Z,9.87
2018-10-12T06:09:27.373Z,9.93
2018-10-12T06:11:57.362Z,9.30
2018-10-12T06:14:27.144Z,11.50
2018-10-12T06:16:56.898Z,11.17
2018-10-12T06:19:26.240Z,9.80
2018-10-12T06:21:56.169Z,10.03
2018-10-12T06:24:26.051Z,8.83
2018-10-12T06:26:56.007Z,8.80
2018-10-12T06:29:27.835Z,8.27
2018-10-12T06:31:58.433Z,9.50
2018-10-12T06:34:29.245Z,10.13
2018-10-12T06:36:59.415Z,9.57
2018-10-12T06:39:29.805Z,9.73
2018-10-12T06:41:59.879Z,10.40
2018-10-12T06:44:30.389Z,9.37
2018-10-12T06:47:00.938Z,9.17
2018-10-12T06:49:34.977Z,9.07
2018-10-12T06:52:05.521Z,9.27
2018-10-12T06:54:36.719Z,9.17
2018-10-12T06:57:06.336Z,9.17
2018-10-12T06:59:36.278Z,9.60
2018-10-12T07:02:09.013Z,9.67
2018-10-12T07:04:39.061Z,9.73
2018-10-12T07:07:09.989Z,9.83
2018-10-12T07:09:39.897Z,10.13
2018-10-12T07:12:09.643Z,9.17
2018-10-12T07:14:39.809Z,10.90
2018-10-12T07:17:12.367Z,9.73
2018-10-12T07:19:42.490Z,9.40
2018-10-12T07:22:12.433Z,10.00
2018-10-12T07:24:42.726Z,9.63
2018-10-12T07:27:13.377Z,10.50
2018-10-12T07:29:43.852Z,8.87
2018-10-12T07:32:13.861Z,9.87
2018-10-12T07:34:45.073Z,9.90
2018-10-12T07:37:15.564Z,9.80
2018-10-12T07:39:46.217Z,9.93
2018-10-12T07:42:16.185Z,9.83
2018-10-12T07:44:47.470Z,9.53
2018-10-12T07:47:17.840Z,10.13
2018-10-12T07:49:48.439Z,10.03
2018-10-12T07:52:18.643Z,10.27
2018-10-12T07:54:49.057Z,8.87
2018-10-12T07:57:18.783Z,9.97
2018-10-12T07:59:49.447Z,10.57
2018-10-12T08:02:20.199Z,11.17
2018-10-12T08:04:50.182Z,10.47
2018-10-12T08:07:20.439Z,10.33
2018-10-12T08:09:51.145Z,9.20
2018-10-12T08:12:21.215Z,10.27
2018-10-12T08:14:51.171Z,9.27
2018-10-12T08:17:21.189Z,9.50
2018-10-12T08:19:51.323Z,10.20
2018-10-12T08:22:22.169Z,9.83
2018-10-12T08:24:52.353Z,10.17
2018-10-12T08:27:22.350Z,10.50
2018-10-12T08:29:52.577Z,9.70
2018-10-12T08:32:22.783Z,9.10
2018-10-12T08:34:53.221Z,9.07
2018-10-12T08:37:25.161Z,9.77
2018-10-12T08:39:58.037Z,9.70
2018-10-12T08:42:28.489Z,9.43
2018-10-12T08:44:58.637Z,9.33
2018-10-12T08:47:28.872Z,9.00
2018-10-12T08:49:58.981Z,9.47
2018-10-12T08:52:29.054Z,9.10
2018-10-12T08:55:00.378Z,8.93
2018-10-12T08:57:30.191Z,8.50
2018-10-12T08:59:59.953Z,8.63
2018-10-12T09:02:30.147Z,8.57
2018-10-12T09:05:00.704Z,8.30
2018-10-12T09:07:30.947Z,7.90
2018-10-12T09:10:00.863Z,8.20
2018-10-12T09:12:30.967Z,8.10
2018-10-12T09:15:00.927Z,7.33
2018-10-12T09:17:31.117Z,7.57
2018-10-12T09:20:01.047Z,7.10
2018-10-12T09:22:31.082Z,7.80
2018-10-12T09:25:00.942Z,7.63
2018-10-12T09:27:31.079Z,7.63
2018-10-12T09:30:01.037Z,7.80
2018-10-12T09:32:30.843Z,6.67
2018-10-12T09:35:00.927Z,6.90
2018-10-12T09:37:31.010Z,8.10
2018-10-12T09:40:01.115Z,7.40
2018-10-12T09:42:31.173Z,7.33
2018-10-12T09:45:01.103Z,7.20
2018-10-12T09:47:31.322Z,7.27
2018-10-12T09:50:01.227Z,6.90
2018-10-12T09:52:31.413Z,6.60
2018-10-12T09:55:01.067Z,6.97
2018-10-12T09:57:36.465Z,7.77
2018-10-12T10:00:13.597Z,7.30
2018-10-12T10:02:48.983Z,7.17
2018-10-12T10:05:18.931Z,7.53
2018-10-12T10:07:48.889Z,7.40
2018-10-12T10:10:18.915Z,6.60
2018-10-12T10:12:49.281Z,7.10
2018-10-12T10:15:19.644Z,6.43
2018-10-12T10:17:49.949Z,6.77
2018-10-12T10:20:19.855Z,7.13
2018-10-12T10:22:49.977Z,6.73
2018-10-12T10:25:19.786Z,6.60
2018-10-12T10:27:49.309Z,6.83
2018-10-12T10:30:18.922Z,6.60
2018-10-12T10:32:49.144Z,6.43
2018-10-12T10:35:18.709Z,5.93
2018-10-12T10:37:48.538Z,6.03
2018-10-12T10:40:18.626Z,6.20
2018-10-12T10:42:48.821Z,6.57
2018-10-12T10:45:18.685Z,6.00
2018-10-12T10:47:48.845Z,6.37
2018-10-12T10:50:18.973Z,5.63
2018-10-12T10:52:48.780Z,5.67
2018-10-12T10:55:18.821Z,5.60
2018-10-12T10:57:48.943Z,4.30
2018-10-12T11:00:19.790Z,3.63
2018-10-12T11:02:50.048Z,3.73
2018-10-12T11:05:19.539Z,4.03
2018-10-12T11:07:49.146Z,5.30
2018-10-12T11:10:18.877Z,4.77
2018-10-12T11:12:48.762Z,4.73
2018-10-12T11:15:18.503Z,5.50
2018-10-12T11:17:48.588Z,5.20
2018-10-12T11:20:18.630Z,4.70
2018-10-12T11:22:48.556Z,4.03
2018-10-12T11:25:18.642Z,4.00
2018-10-12T11:27:48.427Z,3.83
2018-10-12T11:30:18.564Z,3.93
2018-10-12T11:32:48.271Z,3.97
2018-10-12T11:35:18.371Z,3.53
2018-10-12T11:37:48.740Z,3.37
2018-10-12T11:40:18.600Z,3.87
2018-10-12T11:42:59.357Z,3.33
2018-10-12T11:45:29.168Z,3.37
2018-10-12T11:47:58.916Z,3.20
2018-10-12T11:50:29.087Z,3.30
2018-10-12T11:52:58.998Z,3.40
2018-10-12T11:55:29.007Z,2.97
2018-10-12T11:57:59.027Z,3.73
2018-10-12T12:00:28.836Z,3.40
2018-10-12T12:02:58.872Z,4.07
2018-10-12T12:05:28.765Z,3.20
2018-10-12T12:07:58.845Z,3.20
2018-10-12T12:10:29.204Z,3.40
2018-10-12T12:12:59.072Z,2.97
2018-10-12T12:15:29.128Z,3.40
2018-10-12T12:17:59.462Z,3.13
2018-10-12T12:20:29.286Z,2.70
2018-10-12T12:22:59.156Z,2.57
2018-10-12T12:25:29.669Z,2.50
2018-10-12T12:27:59.330Z,3.20
2018-10-12T12:30:29.253Z,2.40
2018-10-12T12:32:59.285Z,2.80
2018-10-12T12:35:29.078Z,2.20
2018-10-12T12:37:58.696Z,2.20
2018-10-12T12:40:28.588Z,2.23
2018-10-12T12:42:58.460Z,1.97
2018-10-12T12:45:28.420Z,1.97
2018-10-12T12:47:58.356Z,2.23
2018-10-12T12:50:28.299Z,2.10
2018-10-12T12:52:58.348Z,2.20
2018-10-12T12:55:28.585Z,2.23
2018-10-12T12:57:58.686Z,2.43
2018-10-12T13:00:28.569Z,2.70
2018-10-12T13:02:58.582Z,2.27
2018-10-12T13:05:28.803Z,2.43
2018-10-12T13:07:58.744Z,2.97
2018-10-12T13:10:28.668Z,3.30
2018-10-12T13:12:58.493Z,3.10
2018-10-12T13:15:28.615Z,3.13
2018-10-12T13:17:58.662Z,3.70
2018-10-12T13:20:28.595Z,3.53
2018-10-12T13:22:58.417Z,4.17
2018-10-12T13:25:28.697Z,3.90
2018-10-12T13:27:58.619Z,3.83
2018-10-12T13:30:28.657Z,3.60
2018-10-12T13:32:58.742Z,4.43
2018-10-12T13:35:28.656Z,3.87
2018-10-12T13:37:58.399Z,3.83
2018-10-12T13:40:28.577Z,4.03
2018-10-12T13:42:58.555Z,4.00
2018-10-12T13:45:28.502Z,3.50
2018-10-12T13:47:58.348Z,4.20
2018-10-12T13:50:28.502Z,3.90
2018-10-12T13:52:58.520Z,4.30
2018-10-12T13:55:28.495Z,4.30
2018-10-12T13:57:58.606Z,4.17
2018-10-12T14:00:28.741Z,4.13
2018-10-12T14:02:58.837Z,4.50
2018-10-12T14:05:28.614Z,4.20
2018-10-12T14:07:58.864Z,4.17
2018-10-12T14:10:28.758Z,4.57
2018-10-12T14:12:58.960Z,4.50
2018-10-12T14:15:28.923Z,4.70
2018-10-12T14:17:58.621Z,3.97
2018-10-12T14:20:28.766Z,4.17
2018-10-12T14:22:59.071Z,3.80
2018-10-12T14:25:29.451Z,4.03
2018-10-12T14:27:59.585Z,4.07
2018-10-12T14:30:29.550Z,4.30
2018-10-12T14:33:00.633Z,3.70
2018-10-12T14:35:31.231Z,4.20
2018-10-12T14:38:01.676Z,3.70
2018-10-12T14:40:31.610Z,3.30
2018-10-12T14:43:01.502Z,3.57
2018-10-12T14:45:32.127Z,3.60
2018-10-12T14:48:02.072Z,3.07
2018-10-12T14:50:32.597Z,3.03
2018-10-12T14:53:04.140Z,3.30
2018-10-12T14:55:34.813Z,3.13
2018-10-12T14:58:04.767Z,3.20
2018-10-12T15:00:34.724Z,3.47
2018-10-12T15:03:04.615Z,3.13
2018-10-12T15:05:34.859Z,3.60
2018-10-12T15:08:05.029Z,3.50
2018-10-12T15:10:35.199Z,3.50
2018-10-12T15:13:04.950Z,3.40
2018-10-12T15:15:35.825Z,3.50
2018-10-12T15:18:06.391Z,3.63
2018-10-12T15:20:36.687Z,3.50
2018-10-12T15:23:06.509Z,3.50
2018-10-12T15:25:36.516Z,3.53
2018-10-12T15:28:06.506Z,3.27
2018-10-12T15:30:36.617Z,3.30
2018-10-12T15:33:06.927Z,3.97
2018-10-12T15:35:37.966Z,3.47
2018-10-12T15:38:08.103Z,3.50
2018-10-12T15:40:38.429Z,3.87
2018-10-12T15:43:09.030Z,3.63
2018-10-12T15:45:38.924Z,4.23
2018-10-12T15:48:09.176Z,3.80
2018-10-12T15:50:39.281Z,3.27
2018-10-12T15:53:09.042Z,3.20
2018-10-12T15:55:38.898Z,3.70
2018-10-12T15:58:09.105Z,4.17
2018-10-12T16:00:38.889Z,3.30
2018-10-12T16:03:09.208Z,3.70
2018-10-12T16:05:38.886Z,3.30
2018-10-12T16:08:08.755Z,3.73
2018-10-12T16:10:39.051Z,3.40
2018-10-12T16:13:08.886Z,3.50
2018-10-12T16:15:39.059Z,3.90
2018-10-12T16:18:08.936Z,3.63
2018-10-12T16:20:38.689Z,3.90
2018-10-12T16:23:08.632Z,3.50
2018-10-12T16:26:00.664Z,3.10
2018-10-12T16:28:31.472Z,2.83
2018-10-12T16:31:01.223Z,3.03
2018-10-12T16:33:31.081Z,3.23
2018-10-12T16:36:01.394Z,3.27
2018-10-12T16:38:30.854Z,3.13
2018-10-12T16:41:00.606Z,3.30
2018-10-12T16:43:30.350Z,2.97
2018-10-12T16:45:59.765Z,3.10
2018-10-12T16:48:29.220Z,3.23
2018-10-12T16:50:58.339Z,3.20
2018-10-12T16:53:27.415Z,3.10
2018-10-12T16:55:56.429Z,2.80
2018-10-12T16:58:25.559Z,2.80
2018-10-12T17:00:54.717Z,2.93
2018-10-12T17:03:23.804Z,2.80
2018-10-12T17:05:53.055Z,2.87
2018-10-12T17:08:22.231Z,2.90
2018-10-12T17:10:51.436Z,2.87
2018-10-12T17:13:20.575Z,3.50
2018-10-12T17:15:49.659Z,2.93
2018-10-12T17:18:18.977Z,3.77
2018-10-12T17:20:48.424Z,3.27
2018-10-12T17:23:17.731Z,3.87
2018-10-12T17:25:46.897Z,3.60
2018-10-12T17:28:16.279Z,2.97
2018-10-12T17:30:45.657Z,3.27
2018-10-12T17:33:15.079Z,3.33
2018-10-12T17:35:44.436Z,2.87
2018-10-12T17:38:13.636Z,4.10
2018-10-12T17:40:42.833Z,3.60
2018-10-12T17:43:12.198Z,3.60
2018-10-12T17:45:41.418Z,3.33
2018-10-12T17:48:10.581Z,3.60
2018-10-12T17:50:39.665Z,3.97
2018-10-12T17:53:08.944Z,3.50
2018-10-12T17:55:38.295Z,4.40
2018-10-12T17:58:07.483Z,4.03
2018-10-12T18:00:36.699Z,4.00
2018-10-12T18:03:06.025Z,4.10
2018-10-12T18:05:35.243Z,3.83
2018-10-12T18:08:04.373Z,3.57
2018-10-12T18:10:33.648Z,4.23
2018-10-12T18:13:03.017Z,3.50
2018-10-12T18:15:32.453Z,4.23
2018-10-12T18:18:01.610Z,3.77
2018-10-12T18:20:31.191Z,4.27
2018-10-12T18:23:00.690Z,4.37
2018-10-12T18:25:30.186Z,4.40
2018-10-12T18:27:59.356Z,4.03
2018-10-12T18:30:29.156Z,5.17
2018-10-12T18:32:58.408Z,6.30
2018-10-12T18:35:27.611Z,6.90
2018-10-12T18:37:57.117Z,5.23
2018-10-12T18:40:26.605Z,4.00
2018-10-12T18:42:55.998Z,4.10
2018-10-12T18:45:26.085Z,3.87
2018-10-12T18:47:55.449Z,3.97
2018-10-12T18:50:27.008Z,3.67
2018-10-12T18:52:56.410Z,3.60
2018-10-12T18:55:25.801Z,4.40
2018-10-12T18:57:55.775Z,4.87
2018-10-12T19:00:25.440Z,3.67
2018-10-12T19:02:55.045Z,3.60
2018-10-12T19:05:24.402Z,3.13
2018-10-12T19:07:54.019Z,3.80
2018-10-12T19:10:25.164Z,4.10
2018-10-12T19:12:55.225Z,3.60
2018-10-12T19:15:24.851Z,3.70
2018-10-12T19:17:54.391Z,3.70
2018-10-12T19:20:23.775Z,3.23
2018-10-12T19:22:53.221Z,3.63
2018-10-12T19:25:22.707Z,3.80
2018-10-12T19:27:52.043Z,3.50
2018-10-12T19:30:21.640Z,3.10
2018-10-12T19:32:50.988Z,3.40
2018-10-12T19:35:20.347Z,3.70
2018-10-12T19:37:49.895Z,3.73
2018-10-12T19:40:19.416Z,3.33
2018-10-12T19:42:48.682Z,3.70
2018-10-12T19:45:18.162Z,4.23
2018-10-12T19:47:47.763Z,3.60
2018-10-12T19:50:17.314Z,3.80
2018-10-12T19:52:46.852Z,3.80
2018-10-12T19:55:16.306Z,3.63
2018-10-12T19:57:45.739Z,3.80
2018-10-12T20:00:16.508Z,3.23
2018-10-12T20:02:46.874Z,3.83
2018-10-12T20:05:16.654Z,3.57
2018-10-12T20:07:46.130Z,3.90
2018-10-12T20:10:15.469Z,4.10
2018-10-12T20:12:44.713Z,3.67
2018-10-12T20:15:14.240Z,3.87
2018-10-12T20:17:43.848Z,3.70
2018-10-12T20:20:13.251Z,3.60
2018-10-12T20:22:43.055Z,3.73
2018-10-12T20:25:12.524Z,3.90
2018-10-12T20:27:41.903Z,3.50
2018-10-12T20:30:11.300Z,3.80
2018-10-12T20:32:40.708Z,4.07
2018-10-12T20:35:10.246Z,3.60
2018-10-12T20:37:39.512Z,4.03
2018-10-12T20:40:08.873Z,4.03
2018-10-12T20:42:38.296Z,3.90
2018-10-12T20:45:07.793Z,3.63
2018-10-12T20:47:37.314Z,3.63
2018-10-12T20:50:06.687Z,3.90
2018-10-12T20:52:36.203Z,3.60
2018-10-12T20:55:05.710Z,3.90
2018-10-12T20:57:35.065Z,4.30
2018-10-12T21:00:04.541Z,4.20
2018-10-12T21:02:33.819Z,3.77
2018-10-12T21:05:03.320Z,4.00
2018-10-12T21:07:32.896Z,3.53
2018-10-12T21:10:02.772Z,3.93
2018-10-12T21:12:32.055Z,3.93
2018-10-12T21:15:01.338Z,3.60
2018-10-12T21:17:30.768Z,3.13
2018-10-12T21:20:00.972Z,3.93
2018-10-12T21:22:30.456Z,3.77
2018-10-12T21:24:59.917Z,3.80
2018-10-12T21:27:29.314Z,3.87
2018-10-12T21:29:58.710Z,4.03
2018-10-12T21:32:28.198Z,3.70
2018-10-12T21:34:57.584Z,4.13
2018-10-12T21:37:27.036Z,3.57
2018-10-12T21:39:56.340Z,3.83
2018-10-12T21:42:26.074Z,3.43
2018-10-12T21:44:55.304Z,4.10
2018-10-12T21:47:24.839Z,3.60
2018-10-12T21:49:54.183Z,3.90
2018-10-12T21:52:23.541Z,3.90
2018-10-12T21:54:53.018Z,4.27
2018-10-12T21:57:22.595Z,4.23
2018-10-12T21:59:52.067Z,4.07
2018-10-12T22:02:21.446Z,3.67
2018-10-12T22:04:50.778Z,4.37
2018-10-12T22:07:20.312Z,3.90
2018-10-12T22:09:49.662Z,3.73
2018-10-12T22:12:18.847Z,3.73
2018-10-12T22:14:48.350Z,3.60
2018-10-12T22:17:17.796Z,3.73
2018-10-12T22:19:47.065Z,3.57
2018-10-12T22:22:16.462Z,4.20
2018-10-12T22:24:45.825Z,4.10
2018-10-12T22:27:15.311Z,4.37
2018-10-12T22:29:44.772Z,4.23
2018-10-12T22:32:14.198Z,3.60
2018-10-12T22:34:43.831Z,4.20
2018-10-12T22:37:13.069Z,4.17
2018-10-12T22:39:43.270Z,3.77
2018-10-12T22:42:13.590Z,3.83
2018-10-12T22:44:43.214Z,4.13
2018-10-12T22:47:12.792Z,3.70
2018-10-12T22:49:42.125Z,4.17
2018-10-12T22:52:11.313Z,3.83
2018-10-12T22:54:40.701Z,4.63
2018-10-12T22:57:09.966Z,4.40
2018-10-12T22:59:39.197Z,3.83
2018-10-12T23:02:08.509Z,4.10
2018-10-12T23:04:37.744Z,4.20
2018-10-12T23:07:07.346Z,4.53
2018-10-12T23:09:36.756Z,4.23
2018-10-12T23:12:05.896Z,4.80
2018-10-12T23:14:35.356Z,4.67
2018-10-12T23:17:04.639Z,4.53
2018-10-12T23:19:33.804Z,4.47
2018-10-12T23:22:03.120Z,4.27
2018-10-12T23:24:32.540Z,4.60
2018-10-12T23:27:02.064Z,4.23
2018-10-12T23:29:31.394Z,4.87
2018-10-12T23:32:00.512Z,4.63
2018-10-12T23:34:29.883Z,4.67
2018-10-12T23:36:59.177Z,4.60
2018-10-12T23:39:28.584Z,4.87
2018-10-12T23:41:57.934Z,5.10
2018-10-12T23:44:27.127Z,4.50
2018-10-12T23:46:56.633Z,4.33
2018-10-12T23:49:26.016Z,4.70
2018-10-12T23:51:55.353Z,4.53
2018-10-12T23:54:24.804Z,4.73
2018-10-12T23:56:54.198Z,4.80
2018-10-12T23:59:23.422Z,4.57
